Time;durP1;ratioP1;P1;durP2;ratioP2;P2;SDS_P1;SDS_P2;PMS_P1;PMS_P2;Temp;Humidity;BMP_temperature;BMP_pressure;BME280_temperature;BME280_humidity;BME280_pressure;Samples;Min_cycle;Max_cycle;Signal;HPM_P1;HPM_P2
2023/12/01 00:01:49;;;;;;;60.05;24.52;;;2.70;99.90;;;;;;4159826;28;20418;-74
2023/12/01 00:03:50;;;;;;;49.15;22.30;;;2.80;99.90;;;;;;4168644;28;20398;-74
2023/12/01 00:05:50;;;;;;;57.20;24.95;;;2.80;99.90;;;;;;4170018;28;20419;-74
2023/12/01 00:07:51;;;;;;;57.80;26.25;;;2.80;99.90;;;;;;4164110;28;20445;-74
2023/12/01 00:09:52;;;;;;;58.72;26.48;;;2.80;99.90;;;;;;4149555;28;20615;-73
2023/12/01 00:11:52;;;;;;;61.33;28.20;;;2.90;99.90;;;;;;4147924;28;21669;-72
2023/12/01 00:13:53;;;;;;;69.93;29.48;;;2.90;99.90;;;;;;4165264;28;20501;-72
2023/12/01 00:15:54;;;;;;;71.35;30.27;;;2.90;99.90;;;;;;4148485;28;20124;-73
2023/12/01 00:17:54;;;;;;;65.25;28.95;;;3.00;99.90;;;;;;4169440;28;20037;-74
2023/12/01 00:19:55;;;;;;;68.88;31.48;;;3.00;99.90;;;;;;4175480;28;20033;-72
2023/12/01 00:21:55;;;;;;;66.95;28.80;;;3.00;99.90;;;;;;4146848;28;20038;-73
2023/12/01 00:23:56;;;;;;;61.90;27.27;;;3.00;99.90;;;;;;4150721;28;20577;-73
2023/12/01 00:25:57;;;;;;;60.33;27.55;;;3.00;99.90;;;;;;4168171;28;20037;-73
2023/12/01 00:27:58;;;;;;;59.55;26.55;;;3.00;99.90;;;;;;4154001;28;20038;-72
2023/12/01 00:29:58;;;;;;;58.28;26.25;;;3.00;99.90;;;;;;4166157;28;20029;-73
2023/12/01 00:31:59;;;;;;;55.42;25.50;;;3.00;99.90;;;;;;4168183;28;20066;-73
2023/12/01 00:34:00;;;;;;;61.42;27.92;;;3.00;99.90;;;;;;4152240;28;20073;-73
2023/12/01 00:36:00;;;;;;;58.78;27.75;;;3.10;99.90;;;;;;4152669;28;20046;-72
2023/12/01 00:38:01;;;;;;;69.82;29.90;;;3.10;99.90;;;;;;4168040;28;20092;-73
2023/12/01 00:40:03;;;;;;;64.85;28.15;;;3.10;99.90;;;;;;4169265;28;20057;-72
2023/12/01 00:42:03;;;;;;;57.15;27.02;;;3.10;99.90;;;;;;4169495;28;20126;-73
2023/12/01 00:44:04;;;;;;;56.95;25.75;;;3.10;99.90;;;;;;4167152;28;20467;-73
2023/12/01 00:46:05;;;;;;;59.63;27.02;;;3.10;99.90;;;;;;4153727;28;20459;-73
2023/12/01 00:48:06;;;;;;;61.45;26.80;;;3.10;99.90;;;;;;4173844;28;20075;-72
2023/12/01 00:50:07;;;;;;;57.63;25.95;;;3.10;99.90;;;;;;4169470;28;20128;-73
2023/12/01 00:52:07;;;;;;;55.70;24.95;;;3.10;99.90;;;;;;4170653;28;20090;-73
2023/12/01 00:54:08;;;;;;;54.60;25.20;;;3.10;99.90;;;;;;4173709;28;20045;-73
2023/12/01 00:56:13;;;;;;;53.28;25.15;;;3.10;99.90;;;;;;4166816;28;20037;-73
2023/12/01 00:58:13;;;;;;;52.72;24.52;;;3.10;99.90;;;;;;4164255;28;20041;-72
2023/12/01 01:00:14;;;;;;;53.03;24.42;;;3.10;99.90;;;;;;4150869;28;20034;-73
2023/12/01 01:02:15;;;;;;;53.90;24.20;;;3.20;99.90;;;;;;4164840;28;20057;-72
2023/12/01 01:04:15;;;;;;;53.90;24.23;;;3.20;99.90;;;;;;4148102;28;20096;-73
2023/12/01 01:06:16;;;;;;;54.55;24.73;;;3.20;99.90;;;;;;4164704;28;20038;-73
2023/12/01 01:08:17;;;;;;;50.70;23.40;;;3.20;99.90;;;;;;4165956;28;20414;-73
2023/12/01 01:10:17;;;;;;;45.55;22.10;;;3.20;99.90;;;;;;4168025;28;20038;-73
2023/12/01 01:12:18;;;;;;;49.20;21.80;;;3.20;99.90;;;;;;4170645;28;20533;-73
2023/12/01 01:14:18;;;;;;;46.63;22.98;;;3.20;99.90;;;;;;4174566;28;20136;-73
2023/12/01 01:16:19;;;;;;;50.80;23.42;;;3.20;99.90;;;;;;4168914;28;20037;-73
2023/12/01 01:18:20;;;;;;;49.30;23.40;;;3.20;99.90;;;;;;4169219;28;21407;-73
2023/12/01 01:20:21;;;;;;;56.03;24.13;;;3.20;99.90;;;;;;4169693;28;20033;-73
2023/12/01 01:22:22;;;;;;;52.42;23.98;;;3.30;99.90;;;;;;4170148;28;20033;-74
2023/12/01 01:24:23;;;;;;;47.75;22.55;;;3.30;99.90;;;;;;4153624;28;20522;-73
2023/12/01 01:26:23;;;;;;;47.17;22.60;;;3.30;99.90;;;;;;4161506;28;20091;-73
2023/12/01 01:28:24;;;;;;;48.60;23.33;;;3.30;99.90;;;;;;4164146;28;20491;-73
2023/12/01 01:30:25;;;;;;;52.60;24.88;;;3.30;99.90;;;;;;4149836;28;20038;-73
2023/12/01 01:32:26;;;;;;;50.67;23.20;;;3.30;99.90;;;;;;4163785;28;20030;-73
2023/12/01 01:34:27;;;;;;;45.35;21.25;;;3.30;99.90;;;;;;4171740;28;20439;-73
2023/12/01 01:36:27;;;;;;;45.13;22.50;;;3.30;99.90;;;;;;4167275;28;20025;-73
2023/12/01 01:38:28;;;;;;;53.00;24.05;;;3.30;99.90;;;;;;4170514;28;20062;-73
2023/12/01 01:40:30;;;;;;;52.03;24.50;;;3.30;99.90;;;;;;4161789;28;20045;-72
2023/12/01 01:42:30;;;;;;;52.75;24.20;;;3.30;99.90;;;;;;4165503;28;20372;-73
2023/12/01 01:44:31;;;;;;;49.95;24.00;;;3.30;99.90;;;;;;4159495;28;20491;-73
2023/12/01 01:46:32;;;;;;;53.58;25.67;;;3.30;99.90;;;;;;4167443;28;20033;-73
2023/12/01 01:48:33;;;;;;;60.70;28.92;;;3.30;99.90;;;;;;4166157;28;20449;-72
2023/12/01 01:50:34;;;;;;;56.97;26.97;;;3.30;99.90;;;;;;4169419;28;20123;-72
2023/12/01 01:52:37;;;;;;;49.90;23.90;;;3.30;99.90;;;;;;4171818;28;20650;-72
2023/12/01 01:54:39;;;;;;;47.08;22.92;;;3.30;99.90;;;;;;4150390;28;20038;-72
2023/12/01 01:56:39;;;;;;;48.10;23.73;;;3.30;99.90;;;;;;4162910;28;20041;-73
2023/12/01 01:58:41;;;;;;;47.00;22.58;;;3.30;99.90;;;;;;4164068;28;20483;-73
2023/12/01 02:00:49;;;;;;;49.97;22.98;;;3.30;99.90;;;;;;4142476;28;20523;-72
2023/12/01 02:02:50;;;;;;;48.97;22.05;;;3.30;99.90;;;;;;4161232;28;20083;-73
2023/12/01 02:04:53;;;;;;;47.22;23.17;;;3.40;99.90;;;;;;4168938;28;20390;-72
2023/12/01 02:06:54;;;;;;;51.22;24.27;;;3.40;99.90;;;;;;4168990;28;20546;-73
2023/12/01 02:08:54;;;;;;;46.92;22.88;;;3.40;99.90;;;;;;4166939;28;20041;-72
2023/12/01 02:10:56;;;;;;;50.55;25.27;;;3.40;99.90;;;;;;4163500;28;20641;-73
2023/12/01 02:12:56;;;;;;;49.65;25.08;;;3.40;99.90;;;;;;4151073;28;20057;-72
2023/12/01 02:14:57;;;;;;;47.38;22.88;;;3.40;99.90;;;;;;4163999;28;20108;-73
2023/12/01 02:16:58;;;;;;;56.55;26.23;;;3.40;99.90;;;;;;4171097;28;20025;-72
2023/12/01 02:18:58;;;;;;;50.22;24.70;;;3.40;99.90;;;;;;4151541;28;20100;-73
2023/12/01 02:21:00;;;;;;;49.72;24.38;;;3.40;99.90;;;;;;4166171;28;20120;-72
2023/12/01 02:23:03;;;;;;;52.60;25.08;;;3.40;99.90;;;;;;4154591;28;20045;-73
2023/12/01 02:25:04;;;;;;;57.97;26.85;;;3.40;99.90;;;;;;4173577;28;20048;-73
2023/12/01 02:27:05;;;;;;;50.83;24.52;;;3.50;99.90;;;;;;4163660;28;20037;-73
2023/12/01 02:29:06;;;;;;;51.42;23.55;;;3.40;99.90;;;;;;4168149;28;20045;-73
2023/12/01 02:31:07;;;;;;;49.33;23.90;;;3.50;99.90;;;;;;4168360;28;20033;-73
2023/12/01 02:33:07;;;;;;;47.53;24.40;;;3.40;99.90;;;;;;4170127;28;20124;-74
2023/12/01 02:35:09;;;;;;;56.15;25.25;;;3.40;99.90;;;;;;4165054;28;20057;-73
2023/12/01 02:37:10;;;;;;;50.22;23.63;;;3.50;99.90;;;;;;4171290;28;20053;-73
2023/12/01 02:39:13;;;;;;;50.30;24.85;;;3.50;99.90;;;;;;4167724;28;20106;-73
2023/12/01 02:41:15;;;;;;;46.50;23.27;;;3.50;99.90;;;;;;4169183;28;20529;-73
2023/12/01 02:43:17;;;;;;;51.60;24.73;;;3.50;99.90;;;;;;4163526;28;20472;-73
2023/12/01 02:45:19;;;;;;;48.05;23.90;;;3.50;99.90;;;;;;4163258;28;20497;-73
2023/12/01 02:47:19;;;;;;;47.05;22.90;;;3.50;99.90;;;;;;4151098;28;20037;-73
2023/12/01 02:49:20;;;;;;;47.08;24.02;;;3.50;99.90;;;;;;4165282;28;20548;-73
2023/12/01 02:51:20;;;;;;;49.85;23.35;;;3.50;99.90;;;;;;4164477;28;20033;-73
2023/12/01 02:53:21;;;;;;;46.58;23.30;;;3.50;99.90;;;;;;4172170;28;20086;-73
2023/12/01 02:55:21;;;;;;;49.97;22.40;;;3.50;99.90;;;;;;4160550;28;20168;-74
2023/12/01 02:57:22;;;;;;;44.75;22.33;;;3.50;99.90;;;;;;4166849;28;20025;-74
2023/12/01 02:59:23;;;;;;;46.15;23.38;;;3.50;99.90;;;;;;4169058;28;20088;-73
2023/12/01 03:01:23;;;;;;;44.85;22.10;;;3.50;99.90;;;;;;4163045;28;20440;-73
2023/12/01 03:03:24;;;;;;;44.75;23.40;;;3.50;99.90;;;;;;4168049;28;21068;-73
2023/12/01 03:05:25;;;;;;;43.28;22.20;;;3.50;99.90;;;;;;4163669;28;20049;-73
2023/12/01 03:07:26;;;;;;;42.50;22.20;;;3.50;99.90;;;;;;4172917;28;20036;-73
2023/12/01 03:09:26;;;;;;;44.58;21.70;;;3.50;99.90;;;;;;4164935;28;20056;-73
2023/12/01 03:11:27;;;;;;;42.97;21.65;;;3.50;99.90;;;;;;4163581;28;20060;-72
2023/12/01 03:13:27;;;;;;;41.15;21.33;;;3.50;99.90;;;;;;4167009;28;20140;-73
2023/12/01 03:15:29;;;;;;;42.88;22.73;;;3.50;99.90;;;;;;4167557;28;20038;-73
2023/12/01 03:17:29;;;;;;;41.78;21.05;;;3.50;99.90;;;;;;4169672;28;20033;-73
2023/12/01 03:19:30;;;;;;;46.97;22.90;;;3.50;99.90;;;;;;4168985;28;20114;-73
2023/12/01 03:21:30;;;;;;;40.50;21.35;;;3.60;99.90;;;;;;4169543;28;20411;-74
2023/12/01 03:23:31;;;;;;;42.38;21.77;;;3.50;99.90;;;;;;4170791;28;20406;-74
2023/12/01 03:25:33;;;;;;;45.85;23.33;;;3.50;99.90;;;;;;4151412;28;20120;-74
2023/12/01 03:27:33;;;;;;;45.60;22.73;;;3.50;99.90;;;;;;4173326;28;20037;-74
2023/12/01 03:29:38;;;;;;;47.58;23.83;;;3.50;99.90;;;;;;4164544;28;20053;-74
2023/12/01 03:31:38;;;;;;;46.63;23.23;;;3.50;99.90;;;;;;4166979;28;20032;-74
2023/12/01 03:33:39;;;;;;;48.88;23.67;;;3.50;99.90;;;;;;4169942;28;20421;-74
2023/12/01 03:35:40;;;;;;;45.70;22.80;;;3.50;99.90;;;;;;4164099;28;20531;-75
2023/12/01 03:37:41;;;;;;;46.85;23.40;;;3.50;99.90;;;;;;4168839;28;20475;-74
2023/12/01 03:39:41;;;;;;;46.30;23.00;;;3.50;99.90;;;;;;4164998;28;20497;-74
2023/12/01 03:41:47;;;;;;;51.60;24.75;;;3.50;99.90;;;;;;4165283;28;20033;-73
2023/12/01 03:43:48;;;;;;;45.55;23.73;;;3.50;99.90;;;;;;4175183;28;20033;-73
2023/12/01 03:45:49;;;;;;;46.20;22.63;;;3.50;99.90;;;;;;4171618;28;20029;-73
2023/12/01 03:47:51;;;;;;;43.55;23.02;;;3.40;99.90;;;;;;4169792;28;20047;-73
2023/12/01 03:49:51;;;;;;;41.28;21.92;;;3.50;99.90;;;;;;4171597;28;20044;-73
2023/12/01 03:51:52;;;;;;;52.17;24.00;;;3.40;99.90;;;;;;4170529;28;20025;-73
2023/12/01 03:53:52;;;;;;;45.67;23.45;;;3.40;99.90;;;;;;4172611;28;20032;-73
2023/12/01 03:55:53;;;;;;;51.15;24.42;;;3.50;99.90;;;;;;4168374;28;20033;-73
2023/12/01 03:57:54;;;;;;;47.63;24.42;;;3.40;99.90;;;;;;4170780;28;20029;-73
2023/12/01 03:59:54;;;;;;;46.30;23.33;;;3.40;99.90;;;;;;4151173;28;20033;-73
2023/12/01 04:01:55;;;;;;;45.03;23.17;;;3.30;99.90;;;;;;4166276;28;20037;-73
2023/12/01 04:03:56;;;;;;;50.10;25.27;;;3.30;99.90;;;;;;4173521;28;20451;-73
2023/12/01 04:06:01;;;;;;;43.72;22.50;;;3.30;99.90;;;;;;4168720;28;20467;-73
2023/12/01 04:08:03;;;;;;;44.10;23.30;;;3.30;99.90;;;;;;4168239;28;20021;-73
2023/12/01 04:10:10;;;;;;;45.35;23.35;;;3.30;99.90;;;;;;4144617;28;20037;-73
2023/12/01 04:12:10;;;;;;;49.28;24.10;;;3.30;99.90;;;;;;4171788;28;20037;-74
2023/12/01 04:14:11;;;;;;;49.88;24.00;;;3.30;99.90;;;;;;4169404;28;20507;-73
2023/12/01 04:16:12;;;;;;;45.30;23.95;;;3.30;99.90;;;;;;4172300;28;20568;-73
2023/12/01 04:18:12;;;;;;;41.80;20.90;;;3.30;99.90;;;;;;4171051;28;20036;-73
2023/12/01 04:20:21;;;;;;;42.67;22.23;;;3.20;99.90;;;;;;4166945;28;20048;-74
2023/12/01 04:22:22;;;;;;;44.05;21.73;;;3.30;99.90;;;;;;4175030;28;20029;-73
2023/12/01 04:24:23;;;;;;;48.55;23.85;;;3.30;99.90;;;;;;4166550;28;20076;-73
2023/12/01 04:26:24;;;;;;;43.85;22.33;;;3.10;99.90;;;;;;4164200;28;20099;-73
2023/12/01 04:28:24;;;;;;;45.67;22.63;;;3.20;99.90;;;;;;4168193;28;20128;-73
2023/12/01 04:30:25;;;;;;;43.58;22.00;;;3.20;99.90;;;;;;4148011;28;20038;-73
2023/12/01 04:32:26;;;;;;;42.78;21.45;;;3.10;99.90;;;;;;4167879;28;20040;-73
2023/12/01 04:34:26;;;;;;;41.15;22.25;;;3.10;99.90;;;;;;4169713;28;20079;-73
2023/12/01 04:36:27;;;;;;;42.95;22.42;;;3.20;99.90;;;;;;4163951;28;20037;-73
2023/12/01 04:38:27;;;;;;;45.00;22.70;;;3.10;99.90;;;;;;4165718;28;20044;-73
2023/12/01 04:40:29;;;;;;;42.03;22.23;;;3.00;99.90;;;;;;4154315;28;20033;-74
2023/12/01 04:42:30;;;;;;;40.58;21.67;;;3.10;99.90;;;;;;4173412;28;20124;-73
2023/12/01 04:44:30;;;;;;;46.88;23.45;;;3.10;99.90;;;;;;4174689;28;20604;-72
2023/12/01 04:46:31;;;;;;;45.10;23.10;;;3.10;99.90;;;;;;4170543;28;20517;-72
2023/12/01 04:48:31;;;;;;;44.30;23.52;;;3.20;99.90;;;;;;4163372;28;20038;-71
2023/12/01 04:50:38;;;;;;;49.45;24.45;;;3.20;99.90;;;;;;4165232;28;20399;-73
2023/12/01 04:52:40;;;;;;;40.92;22.10;;;3.20;99.90;;;;;;4155524;28;20092;-73
2023/12/01 04:54:42;;;;;;;40.25;20.65;;;3.20;99.90;;;;;;4154975;28;20124;-73
2023/12/01 04:56:42;;;;;;;41.13;21.88;;;3.20;99.90;;;;;;4165943;28;20033;-72
2023/12/01 04:58:43;;;;;;;42.67;21.67;;;3.20;99.90;;;;;;4153982;28;20177;-74
2023/12/01 05:00:43;;;;;;;38.80;20.55;;;3.20;99.90;;;;;;4169555;28;20064;-73
2023/12/01 05:02:45;;;;;;;40.33;21.33;;;3.30;99.90;;;;;;4168205;28;20064;-73
2023/12/01 05:04:47;;;;;;;44.58;22.80;;;3.20;99.90;;;;;;4169655;28;20036;-73
2023/12/01 05:06:47;;;;;;;43.63;22.60;;;3.20;99.90;;;;;;4170075;28;20025;-73
2023/12/01 05:08:48;;;;;;;42.58;21.33;;;3.20;99.90;;;;;;4169055;28;20043;-72
2023/12/01 05:10:50;;;;;;;43.80;20.77;;;3.20;99.90;;;;;;4163959;28;20037;-73
2023/12/01 05:12:54;;;;;;;38.50;20.00;;;3.20;99.90;;;;;;4150762;28;20030;-73
2023/12/01 05:14:55;;;;;;;38.50;20.88;;;3.20;99.90;;;;;;4161786;28;21579;-74
2023/12/01 05:16:55;;;;;;;37.33;20.08;;;3.20;99.90;;;;;;4151520;28;20519;-73
2023/12/01 05:18:56;;;;;;;42.42;21.13;;;3.20;99.90;;;;;;4152063;28;20507;-72
2023/12/01 05:20:56;;;;;;;37.47;20.38;;;3.20;99.90;;;;;;4170782;28;20033;-72
2023/12/01 05:22:59;;;;;;;43.33;21.75;;;3.30;99.90;;;;;;4170318;28;20033;-73
2023/12/01 05:25:01;;;;;;;;;;;3.30;99.90;;;;;;4171774;28;20110;-72
2023/12/01 05:27:07;;;;;;;42.10;20.08;;;3.30;99.90;;;;;;4164493;28;19909;-73
2023/12/01 05:29:13;;;;;;;40.15;20.90;;;3.30;99.90;;;;;;4166707;28;20041;-72
2023/12/01 05:31:13;;;;;;;37.38;20.30;;;3.30;99.90;;;;;;4163826;28;20770;-74
2023/12/01 05:33:14;;;;;;;37.95;19.92;;;3.30;99.90;;;;;;4168163;28;20057;-72
2023/12/01 05:35:15;;;;;;;38.35;18.80;;;3.20;99.90;;;;;;4163088;28;20052;-73
2023/12/01 05:37:16;;;;;;;37.15;19.10;;;3.20;99.90;;;;;;4165634;28;20034;-73
2023/12/01 05:39:16;;;;;;;33.72;18.55;;;3.30;99.90;;;;;;4170610;28;20444;-73
2023/12/01 05:41:17;;;;;;;29.70;17.40;;;3.20;99.90;;;;;;4167754;28;20792;-74
2023/12/01 05:43:18;;;;;;;35.22;20.40;;;3.30;99.90;;;;;;4173725;28;20490;-75
2023/12/01 05:45:20;;;;;;;38.83;20.15;;;3.20;99.90;;;;;;4165366;28;20076;-73
2023/12/01 05:47:22;;;;;;;36.85;19.45;;;3.20;99.90;;;;;;4154401;28;20036;-73
2023/12/01 05:49:23;;;;;;;;;;;3.20;99.90;;;;;;4166245;28;20490;-74
2023/12/01 05:51:23;;;;;;;36.83;19.27;;;3.20;99.90;;;;;;4171163;28;19991;-73
2023/12/01 05:53:24;;;;;;;33.13;17.50;;;3.10;99.90;;;;;;4172944;28;20101;-73
2023/12/01 05:55:27;;;;;;;36.92;19.17;;;3.10;99.90;;;;;;4168072;28;20045;-73
2023/12/01 05:57:27;;;;;;;34.85;18.60;;;3.10;99.90;;;;;;4168436;28;20040;-73
2023/12/01 05:59:28;;;;;;;39.20;19.65;;;3.10;99.90;;;;;;4165861;28;20160;-73
2023/12/01 06:01:28;;;;;;;35.25;18.38;;;3.10;99.90;;;;;;4164473;28;20391;-72
2023/12/01 06:03:29;;;;;;;30.33;17.63;;;3.10;99.90;;;;;;4173344;28;20494;-72
2023/12/01 06:05:31;;;;;;;35.38;18.20;;;3.20;99.90;;;;;;4173764;28;20623;-73
2023/12/01 06:07:31;;;;;;;33.15;17.48;;;3.20;99.90;;;;;;4153594;28;20171;-71
2023/12/01 06:09:32;;;;;;;40.67;19.33;;;3.20;99.90;;;;;;4167873;28;20413;-73
2023/12/01 06:11:32;;;;;;;34.42;18.30;;;3.20;99.90;;;;;;4168349;28;20025;-73
2023/12/01 06:13:33;;;;;;;35.83;19.42;;;3.20;99.90;;;;;;4166032;28;20048;-73
2023/12/01 06:15:34;;;;;;;35.53;18.63;;;3.20;99.90;;;;;;4147160;28;20571;-72
2023/12/01 06:17:34;;;;;;;36.63;18.58;;;3.20;99.90;;;;;;4163633;28;20412;-72
2023/12/01 06:19:35;;;;;;;35.35;18.35;;;3.20;99.90;;;;;;4145558;28;20068;-73
2023/12/01 06:21:35;;;;;;;33.65;18.17;;;3.20;99.90;;;;;;4146386;28;20506;-73
2023/12/01 06:23:36;;;;;;;36.28;19.33;;;3.20;99.90;;;;;;4146893;28;20423;-72
2023/12/01 06:25:38;;;;;;;37.33;19.83;;;3.30;99.90;;;;;;4144883;28;20542;-72
2023/12/01 06:27:40;;;;;;;33.88;17.67;;;3.20;99.90;;;;;;4148881;28;20102;-73
2023/12/01 06:29:40;;;;;;;33.90;18.70;;;3.20;99.90;;;;;;4167410;28;20044;-73
2023/12/01 06:31:41;;;;;;;29.52;16.30;;;3.10;99.90;;;;;;4163144;28;20698;-73
2023/12/01 06:33:41;;;;;;;36.70;19.27;;;3.10;99.90;;;;;;4168518;28;20424;-72
2023/12/01 06:35:42;;;;;;;34.85;17.60;;;3.10;99.90;;;;;;4168836;28;20482;-72
2023/12/01 06:37:44;;;;;;;33.38;17.60;;;3.10;99.90;;;;;;4169121;28;20573;-73
2023/12/01 06:39:44;;;;;;;37.40;18.10;;;2.90;99.90;;;;;;4167683;28;20043;-74
2023/12/01 06:41:46;;;;;;;33.80;16.70;;;2.90;99.90;;;;;;4166740;28;20079;-73
2023/12/01 06:43:46;;;;;;;34.22;16.92;;;2.80;99.90;;;;;;4168889;28;20037;-72
2023/12/01 06:45:47;;;;;;;30.95;16.55;;;2.70;99.90;;;;;;4167352;28;20096;-73
2023/12/01 06:47:49;;;;;;;37.25;17.55;;;2.60;99.90;;;;;;4162953;28;20394;-74
2023/12/01 06:49:50;;;;;;;31.58;16.45;;;2.60;99.90;;;;;;4164941;28;20476;-73
2023/12/01 06:51:50;;;;;;;35.92;17.23;;;2.60;99.90;;;;;;4164864;28;20110;-74
2023/12/01 06:53:51;;;;;;;30.60;16.27;;;2.50;99.90;;;;;;4169858;28;20029;-75
2023/12/01 06:55:52;;;;;;;33.65;17.38;;;2.50;99.90;;;;;;4170854;28;20123;-75
2023/12/01 06:57:53;;;;;;;34.13;16.90;;;2.50;99.90;;;;;;4171215;28;20112;-74
2023/12/01 06:59:53;;;;;;;34.65;17.55;;;2.50;99.90;;;;;;4154069;28;20038;-75
2023/12/01 07:01:54;;;;;;;33.80;17.42;;;2.40;99.90;;;;;;4171016;28;20475;-75
2023/12/01 07:03:54;;;;;;;33.70;17.83;;;2.40;99.90;;;;;;4171295;28;20410;-75
2023/12/01 07:05:55;;;;;;;35.15;17.17;;;2.40;99.90;;;;;;4169255;28;20541;-73
2023/12/01 07:07:57;;;;;;;32.13;15.77;;;2.40;99.90;;;;;;4170571;28;20130;-74
2023/12/01 07:09:58;;;;;;;32.80;15.43;;;2.50;99.90;;;;;;4170190;28;20068;-72
2023/12/01 07:12:03;;;;;;;33.33;16.42;;;2.40;99.90;;;;;;4167830;28;20499;-74
2023/12/01 07:14:04;;;;;;;35.13;17.67;;;2.40;99.90;;;;;;4171281;28;20095;-71
2023/12/01 07:16:09;;;;;;;34.88;17.02;;;2.30;99.90;;;;;;4168665;28;20041;-71
2023/12/01 07:18:11;;;;;;;32.72;16.77;;;2.30;99.90;;;;;;4169030;28;20064;-76
2023/12/01 07:20:14;;;;;;;35.50;18.33;;;2.30;99.90;;;;;;4170447;28;20119;-68
2023/12/01 07:22:15;;;;;;;37.03;17.27;;;2.20;99.90;;;;;;4171927;28;20025;-74
2023/12/01 07:24:18;;;;;;;32.42;16.80;;;2.30;99.90;;;;;;4171910;28;20063;-73
2023/12/01 07:26:25;;;;;;;37.95;18.45;;;2.30;99.90;;;;;;4166467;28;20098;-71
2023/12/01 07:28:27;;;;;;;38.33;18.00;;;2.20;99.90;;;;;;4169245;28;20037;-72
2023/12/01 07:30:27;;;;;;;32.13;16.70;;;2.20;99.90;;;;;;4168223;28;20591;-70
2023/12/01 07:32:28;;;;;;;30.63;15.68;;;2.30;99.90;;;;;;4170388;28;20029;-71
2023/12/01 07:34:28;;;;;;;32.55;15.88;;;2.30;99.90;;;;;;4170176;28;20509;-70
2023/12/01 07:36:29;;;;;;;33.40;17.10;;;2.30;99.90;;;;;;4151445;28;20041;-65
2023/12/01 07:38:30;;;;;;;34.40;17.13;;;2.30;99.90;;;;;;4170203;28;20511;-71
2023/12/01 07:40:32;;;;;;;33.65;16.60;;;2.30;99.90;;;;;;4171770;28;21010;-70
2023/12/01 07:42:33;;;;;;;34.35;16.80;;;2.40;99.90;;;;;;4172381;28;20032;-70
2023/12/01 07:44:34;;;;;;;34.45;16.08;;;2.40;99.90;;;;;;4171015;28;20414;-73
2023/12/01 07:46:34;;;;;;;35.92;17.30;;;2.40;99.90;;;;;;4166483;28;20105;-71
2023/12/01 07:48:35;;;;;;;34.10;16.98;;;2.40;99.90;;;;;;4168346;28;20087;-71
2023/12/01 07:50:36;;;;;;;37.88;18.60;;;2.40;99.90;;;;;;4171296;28;20056;-71
2023/12/01 07:52:37;;;;;;;35.22;17.75;;;2.40;99.90;;;;;;4169381;28;20041;-70
2023/12/01 07:54:38;;;;;;;34.25;17.08;;;2.40;99.90;;;;;;4170249;28;20071;-70
2023/12/01 07:56:38;;;;;;;37.50;18.70;;;2.40;99.90;;;;;;4168307;28;20380;-73
2023/12/01 07:58:39;;;;;;;38.95;19.25;;;2.40;99.90;;;;;;4167852;28;20155;-70
2023/12/01 08:00:40;;;;;;;34.72;17.30;;;2.40;99.90;;;;;;4170240;28;20091;-73
2023/12/01 08:02:45;;;;;;;35.73;17.40;;;2.40;99.90;;;;;;4168865;28;20094;-74
2023/12/01 08:04:45;;;;;;;35.13;17.23;;;2.40;99.90;;;;;;4170693;28;20048;-74
2023/12/01 08:06:46;;;;;;;38.13;18.60;;;2.40;99.90;;;;;;4149302;28;20467;-74
2023/12/01 08:08:46;;;;;;;38.60;17.95;;;2.30;99.90;;;;;;4167381;28;20038;-74
2023/12/01 08:10:47;;;;;;;38.17;18.15;;;2.30;99.90;;;;;;4167776;28;20098;-74
2023/12/01 08:12:49;;;;;;;32.55;17.05;;;2.30;99.90;;;;;;4170007;28;20044;-73
2023/12/01 08:14:50;;;;;;;35.13;18.27;;;2.30;99.90;;;;;;4169652;28;20079;-74
2023/12/01 08:16:54;;;;;;;36.05;18.52;;;2.30;99.90;;;;;;4166649;28;20148;-74
2023/12/01 08:18:54;;;;;;;35.45;17.45;;;2.30;99.90;;;;;;4168485;28;20608;-73
2023/12/01 08:20:55;;;;;;;40.67;19.40;;;2.30;99.90;;;;;;4148860;28;20033;-73
2023/12/01 08:22:57;;;;;;;40.90;18.65;;;2.20;99.90;;;;;;4167658;28;20099;-74
2023/12/01 08:24:57;;;;;;;36.30;18.38;;;2.20;99.90;;;;;;4170331;28;20124;-74
2023/12/01 08:26:59;;;;;;;36.38;17.40;;;2.10;99.90;;;;;;4152425;28;20131;-74
2023/12/01 08:29:00;;;;;;;33.45;17.17;;;2.10;99.90;;;;;;4149996;28;20045;-73
2023/12/01 08:31:00;;;;;;;32.88;17.30;;;2.10;99.90;;;;;;4159309;28;20030;-74
2023/12/01 08:33:01;;;;;;;36.60;16.95;;;2.10;99.90;;;;;;4169082;28;20063;-73
2023/12/01 08:35:03;;;;;;;38.15;18.55;;;2.10;99.90;;;;;;4167287;28;20379;-74
2023/12/01 08:37:03;;;;;;;37.25;17.33;;;2.20;99.90;;;;;;4149024;28;20034;-73
2023/12/01 08:39:04;;;;;;;31.85;16.88;;;2.10;99.90;;;;;;4166364;28;20544;-73
2023/12/01 08:41:05;;;;;;;36.15;17.13;;;2.20;99.90;;;;;;4167463;28;20403;-73
2023/12/01 08:43:06;;;;;;;31.10;15.85;;;2.20;99.90;;;;;;4167529;28;20041;-73
2023/12/01 08:45:07;;;;;;;34.53;15.63;;;2.20;99.90;;;;;;4169811;28;20041;-73
2023/12/01 08:47:08;;;;;;;34.10;17.10;;;2.30;99.90;;;;;;4171508;28;20043;-74
2023/12/01 08:49:09;;;;;;;34.63;17.55;;;2.30;99.90;;;;;;4165696;28;20345;-73
2023/12/01 08:51:09;;;;;;;41.83;18.77;;;2.30;99.90;;;;;;4166741;28;20041;-73
2023/12/01 08:53:10;;;;;;;44.00;21.30;;;2.20;99.90;;;;;;4165936;28;20029;-73
2023/12/01 08:55:11;;;;;;;39.20;18.10;;;2.20;99.90;;;;;;4167627;28;20068;-73
2023/12/01 08:57:11;;;;;;;36.83;17.75;;;2.20;99.90;;;;;;4168856;28;20046;-73
2023/12/01 08:59:12;;;;;;;44.55;21.63;;;2.20;99.90;;;;;;4168267;28;20045;-74
2023/12/01 09:01:12;;;;;;;44.95;21.42;;;2.10;99.90;;;;;;4164068;28;20102;-73
2023/12/01 09:03:13;;;;;;;41.72;20.40;;;2.10;99.90;;;;;;4169732;28;20041;-73
2023/12/01 09:05:14;;;;;;;42.03;20.63;;;2.10;99.90;;;;;;4167878;28;20137;-74
2023/12/01 09:07:15;;;;;;;47.47;21.67;;;2.10;99.90;;;;;;4165296;28;20094;-73
2023/12/01 09:09:17;;;;;;;45.10;22.15;;;2.10;99.90;;;;;;4167519;28;20460;-73
2023/12/01 09:11:17;;;;;;;39.78;20.25;;;2.10;99.90;;;;;;4166906;28;20040;-73
2023/12/01 09:13:18;;;;;;;41.88;19.65;;;2.10;99.90;;;;;;4167288;28;20630;-73
2023/12/01 09:15:19;;;;;;;43.00;20.55;;;2.20;99.90;;;;;;4165053;28;20035;-73
2023/12/01 09:17:19;;;;;;;40.92;20.35;;;2.20;99.90;;;;;;4167516;28;20124;-74
2023/12/01 09:19:20;;;;;;;47.00;21.38;;;2.10;99.90;;;;;;4166393;28;20140;-74
2023/12/01 09:21:22;;;;;;;48.08;20.52;;;2.20;99.90;;;;;;4167032;28;20879;-74
2023/12/01 09:23:24;;;;;;;40.17;19.77;;;2.20;99.90;;;;;;4166947;28;20547;-74
2023/12/01 09:25:25;;;;;;;42.85;19.83;;;2.20;99.90;;;;;;4168147;28;20053;-73
2023/12/01 09:27:25;;;;;;;37.47;19.00;;;2.20;99.90;;;;;;4169959;28;20029;-74
2023/12/01 09:29:26;;;;;;;41.83;19.77;;;2.30;99.90;;;;;;4167290;28;20399;-74
2023/12/01 09:31:26;;;;;;;52.08;22.83;;;2.30;99.90;;;;;;4166609;28;20048;-74
2023/12/01 09:33:27;;;;;;;44.75;20.50;;;2.20;99.90;;;;;;4168283;28;20094;-74
2023/12/01 09:35:28;;;;;;;43.40;19.50;;;2.20;99.90;;;;;;4169402;28;20040;-73
2023/12/01 09:37:28;;;;;;;38.90;19.35;;;2.20;99.90;;;;;;4169222;28;20048;-74
2023/12/01 09:39:29;;;;;;;35.53;18.35;;;2.10;99.90;;;;;;4146971;28;20569;-74
2023/12/01 09:41:33;;;;;;;38.05;19.13;;;2.20;99.90;;;;;;4151392;28;20038;-74
2023/12/01 09:43:33;;;;;;;39.03;19.02;;;2.10;99.90;;;;;;4169340;28;20128;-74
2023/12/01 09:45:35;;;;;;;34.75;17.95;;;2.10;99.90;;;;;;4167391;28;20505;-74
2023/12/01 09:47:42;;;;;;;41.08;19.52;;;2.20;99.90;;;;;;4167907;28;20828;-73
2023/12/01 09:49:46;;;;;;;40.22;19.50;;;2.10;99.90;;;;;;4166914;28;20560;-73
2023/12/01 09:51:46;;;;;;;45.17;21.05;;;2.10;99.90;;;;;;4167146;28;20151;-74
2023/12/01 09:53:47;;;;;;;39.45;19.85;;;2.00;99.90;;;;;;4168954;28;20403;-74
2023/12/01 09:55:48;;;;;;;42.95;20.83;;;2.00;99.90;;;;;;4167586;28;20053;-74
2023/12/01 09:57:49;;;;;;;46.97;22.08;;;2.00;99.90;;;;;;4167943;28;20079;-73
2023/12/01 09:59:49;;;;;;;40.92;20.85;;;1.90;99.90;;;;;;4165749;28;20040;-73
2023/12/01 10:01:51;;;;;;;41.53;20.10;;;2.00;99.90;;;;;;4167099;28;20457;-74
2023/12/01 10:03:52;;;;;;;40.15;19.95;;;1.90;99.90;;;;;;4152401;28;20120;-73
2023/12/01 10:05:56;;;;;;;38.03;19.60;;;2.00;99.90;;;;;;4167082;28;20601;-73
2023/12/01 10:07:58;;;;;;;43.45;20.25;;;2.00;99.90;;;;;;4169552;28;20033;-73
2023/12/01 10:09:59;;;;;;;40.33;18.67;;;2.00;99.90;;;;;;4167785;28;20151;-73
2023/12/01 10:12:10;;;;;;;41.50;20.80;;;2.00;99.90;;;;;;4158754;28;20150;-74
2023/12/01 10:14:11;;;;;;;42.17;19.42;;;2.00;99.90;;;;;;4164742;28;20041;-74
2023/12/01 10:16:11;;;;;;;40.97;20.52;;;2.00;99.90;;;;;;4166866;28;20025;-73
2023/12/01 10:18:16;;;;;;;44.70;21.38;;;2.00;99.90;;;;;;4163620;28;20030;-73
2023/12/01 10:20:21;;;;;;;38.78;19.92;;;2.00;99.90;;;;;;4150037;28;20463;-74
2023/12/01 10:22:24;;;;;;;41.80;21.20;;;2.10;99.90;;;;;;4165947;28;20029;-74
2023/12/01 10:24:25;;;;;;;44.60;21.92;;;2.10;99.90;;;;;;4166266;28;20105;-74